Terminal Aerodrome Forecast
Issued by NWS

Home | Current Version | Previous Version | Text Only | Print | Product List | Glossary On
Versions: 1 2 3 4 5 6 7 8 9 10 11 12 13
000
FTUS41 KBGM 011730
TAFRME
TAF
KRME 011730Z 0118/0218 21018G30KT P6SM BKN045
      TEMPO 0122/0202 3SM SHRA BR OVC025
     FM020300 25022G38KT P6SM -SHRASN OVC035
     FM021200 27018G29KT P6SM OVC035=

USA.gov is the U.S. government's official web portal to all federal, state and local government web resources and services.